Time,TemperatureF,DewpointF,PressureIn,WindDirection,WindDirectionDegrees,WindSpeedMPH,WindSpeedGustMPH,Humidity,HourlyPrecipIn,Conditions,Clouds,dailyrainin,SoftwareType,DateUTC
2013-07-12 00:01:00,59.9,59.0,29.96,NNW,348,0.0,0.0,97,0.00,,,0.00,Wunderground v.1.13,2013-07-12 04:01:00,
2013-07-12 00:06:00,59.8,58.9,29.96,NNW,348,0.0,0.0,97,0.00,,,0.00,Wunderground v.1.13,2013-07-12 04:06:00,
2013-07-12 00:11:00,59.6,58.7,29.95,NNW,348,0.0,0.0,97,0.00,,,0.00,Wunderground v.1.13,2013-07-12 04:11:00,
2013-07-12 00:16:00,59.7,58.8,29.96,NNW,348,0.0,0.0,97,0.00,,,0.00,Wunderground v.1.13,2013-07-12 04:16:00,
2013-07-12 00:21:00,59.9,59.0,29.96,NNW,348,0.0,0.0,97,0.00,,,0.00,Wunderground v.1.13,2013-07-12 04:21:00,
2013-07-12 00:26:00,60.0,59.1,29.96,NNW,348,0.0,0.0,97,0.00,,,0.00,Wunderground v.1.13,2013-07-12 04:26:00,
2013-07-12 00:31:00,60.0,59.1,29.96,NNW,348,0.0,0.0,97,0.00,,,0.00,Wunderground v.1.13,2013-07-12 04:31:00,
2013-07-12 00:36:00,59.9,59.0,29.95,NNW,348,0.0,0.0,97,0.00,,,0.00,Wunderground v.1.13,2013-07-12 04:36:00,
2013-07-12 00:41:00,59.7,58.8,29.95,NNW,348,0.0,0.0,97,0.00,,,0.00,Wunderground v.1.13,2013-07-12 04:41:00,
2013-07-12 00:46:00,59.6,58.7,29.95,NNW,348,0.0,0.0,97,0.00,,,0.00,Wunderground v.1.13,2013-07-12 04:46:00,
2013-07-12 00:51:00,59.6,58.7,29.95,NNW,348,0.0,0.0,97,0.00,,,0.00,Wunderground v.1.13,2013-07-12 04:51:00,
2013-07-12 00:56:00,59.6,58.7,29.95,NNW,348,0.0,0.0,97,0.00,,,0.00,Wunderground v.1.13,2013-07-12 04:56:00,
2013-07-12 01:02:00,59.6,58.7,29.95,NNW,348,0.0,0.0,97,0.00,,,0.00,Wunderground v.1.13,2013-07-12 05:02:00,
2013-07-12 01:08:00,59.3,58.4,29.95,NNW,348,0.0,0.0,97,0.00,,,0.00,Wunderground v.1.13,2013-07-12 05:08:00,
2013-07-12 01:14:00,59.2,58.3,29.95,NNW,348,0.0,0.0,97,0.00,,,0.00,Wunderground v.1.13,2013-07-12 05:14:00,
2013-07-12 01:19:00,59.2,58.3,29.94,NNW,348,0.0,0.0,97,0.00,,,0.00,Wunderground v.1.13,2013-07-12 05:19:00,
2013-07-12 01:24:00,59.2,58.3,29.95,NNW,348,0.0,0.0,97,0.00,,,0.00,Wunderground v.1.13,2013-07-12 05:24:00,
2013-07-12 01:30:00,59.2,58.6,29.95,NNW,348,0.0,0.0,98,0.00,,,0.00,Wunderground v.1.13,2013-07-12 05:30:00,
2013-07-12 01:36:00,59.1,58.5,29.95,NNW,348,0.0,0.0,98,0.00,,,0.00,Wunderground v.1.13,2013-07-12 05:36:00,
2013-07-12 01:42:00,58.9,58.3,29.95,NNW,348,0.0,0.0,98,0.00,,,0.00,Wunderground v.1.13,2013-07-12 05:42:00,
2013-07-12 01:47:00,58.9,58.3,29.96,NNW,348,0.0,0.0,98,0.00,,,0.00,Wunderground v.1.13,2013-07-12 05:47:00,
2013-07-12 01:53:00,58.8,58.0,29.96,NNW,348,0.0,0.0,97,0.00,,,0.00,Wunderground v.1.13,2013-07-12 05:53:00,
2013-07-12 01:59:00,58.9,58.1,29.96,NNW,348,0.0,0.0,97,0.00,,,0.00,Wunderground v.1.13,2013-07-12 05:59:00,
2013-07-12 02:05:00,58.7,57.9,29.96,NNW,348,0.0,0.0,97,0.00,,,0.00,Wunderground v.1.13,2013-07-12 06:05:00,
2013-07-12 02:10:00,58.7,57.9,29.96,NNW,348,0.0,0.0,97,0.00,,,0.00,Wunderground v.1.13,2013-07-12 06:10:00,
2013-07-12 02:16:00,58.7,58.1,29.96,NNW,348,0.0,0.0,98,0.00,,,0.00,Wunderground v.1.13,2013-07-12 06:16:00,
2013-07-12 02:22:00,58.9,58.3,29.96,NNW,348,0.0,0.0,98,0.00,,,0.00,Wunderground v.1.13,2013-07-12 06:22:00,
2013-07-12 02:28:00,58.9,58.3,29.96,NNW,348,0.0,0.0,98,0.00,,,0.00,Wunderground v.1.13,2013-07-12 06:28:00,
2013-07-12 02:34:00,58.9,58.3,29.97,NNW,348,0.0,0.0,98,0.00,,,0.00,Wunderground v.1.13,2013-07-12 06:34:00,
2013-07-12 02:40:00,58.7,58.1,29.97,NNW,348,0.0,0.0,98,0.00,,,0.00,Wunderground v.1.13,2013-07-12 06:40:00,
2013-07-12 02:46:00,59.0,58.4,29.96,NNW,348,0.0,0.0,98,0.00,,,0.00,Wunderground v.1.13,2013-07-12 06:46:00,
2013-07-12 02:52:00,58.9,58.3,29.96,NNW,348,0.0,0.0,98,0.00,,,0.00,Wunderground v.1.13,2013-07-12 06:52:00,
2013-07-12 02:57:00,59.0,58.4,29.96,NNW,348,0.0,0.0,98,0.00,,,0.00,Wunderground v.1.13,2013-07-12 06:57:00,
2013-07-12 03:02:00,59.0,58.4,29.96,NNW,348,0.0,0.0,98,0.00,,,0.00,Wunderground v.1.13,2013-07-12 07:02:00,
2013-07-12 03:07:00,59.1,58.5,29.96,NNW,348,0.0,0.0,98,0.00,,,0.00,Wunderground v.1.13,2013-07-12 07:07:00,
2013-07-12 03:12:00,59.0,58.4,29.96,NNW,348,0.0,0.0,98,0.00,,,0.00,Wunderground v.1.13,2013-07-12 07:12:00,
2013-07-12 03:17:00,59.0,58.4,29.96,NNW,348,0.0,0.0,98,0.00,,,0.00,Wunderground v.1.13,2013-07-12 07:17:00,
2013-07-12 03:22:00,59.1,58.5,29.96,NNW,348,0.0,0.0,98,0.00,,,0.00,Wunderground v.1.13,2013-07-12 07:22:00,
2013-07-12 03:27:00,59.0,58.4,29.96,NNW,348,0.0,0.0,98,0.00,,,0.00,Wunderground v.1.13,2013-07-12 07:27:00,
2013-07-12 03:32:00,58.9,58.3,29.95,NNW,348,0.0,0.0,98,0.00,,,0.00,Wunderground v.1.13,2013-07-12 07:32:00,
2013-07-12 03:37:00,58.8,58.2,29.95,NNW,348,0.0,0.0,98,0.00,,,0.00,Wunderground v.1.13,2013-07-12 07:37:00,
2013-07-12 03:42:00,58.9,58.3,29.95,NNW,348,0.0,0.0,98,0.00,,,0.00,Wunderground v.1.13,2013-07-12 07:42:00,
2013-07-12 03:47:00,59.0,58.4,29.95,NNW,348,0.0,0.0,98,0.00,,,0.00,Wunderground v.1.13,2013-07-12 07:47:00,
2013-07-12 03:52:00,59.0,58.4,29.95,NNW,348,0.0,0.0,98,0.00,,,0.00,Wunderground v.1.13,2013-07-12 07:52:00,
2013-07-12 03:57:00,58.9,58.3,29.95,NNW,348,0.0,0.0,98,0.00,,,0.00,Wunderground v.1.13,2013-07-12 07:57:00,
2013-07-12 04:02:00,58.9,58.3,29.95,NNW,348,0.0,0.0,98,0.00,,,0.00,Wunderground v.1.13,2013-07-12 08:02:00,
2013-07-12 04:07:00,58.9,58.3,29.95,NNW,348,0.0,0.0,98,0.00,,,0.00,Wunderground v.1.13,2013-07-12 08:07:00,
2013-07-12 04:12:00,58.7,58.1,29.96,NNW,348,0.0,0.0,98,0.00,,,0.00,Wunderground v.1.13,2013-07-12 08:12:00,
2013-07-12 04:17:00,58.7,58.1,29.96,NNW,348,0.0,0.0,98,0.00,,,0.00,Wunderground v.1.13,2013-07-12 08:17:00,
2013-07-12 04:22:00,58.4,57.8,29.96,NNW,348,0.0,0.0,98,0.00,,,0.00,Wunderground v.1.13,2013-07-12 08:22:00,
2013-07-12 04:27:00,58.3,57.7,29.96,NNW,348,0.0,0.0,98,0.00,,,0.00,Wunderground v.1.13,2013-07-12 08:27:00,
2013-07-12 04:32:00,58.2,57.6,29.96,NNW,348,0.0,0.0,98,0.00,,,0.00,Wunderground v.1.13,2013-07-12 08:32:00,
2013-07-12 04:37:00,58.3,57.7,29.96,NNW,348,0.0,0.0,98,0.00,,,0.00,Wunderground v.1.13,2013-07-12 08:37:00,
2013-07-12 04:42:00,58.3,57.7,29.96,NNW,348,0.0,0.0,98,0.00,,,0.00,Wunderground v.1.13,2013-07-12 08:42:00,
2013-07-12 04:47:00,58.2,57.6,29.96,NNW,348,0.0,0.0,98,0.00,,,0.00,Wunderground v.1.13,2013-07-12 08:47:00,
2013-07-12 04:52:00,57.9,57.3,29.96,NNW,348,0.0,0.0,98,0.00,,,0.00,Wunderground v.1.13,2013-07-12 08:52:00,
2013-07-12 04:57:00,57.9,57.3,29.96,NNW,348,0.0,0.0,98,0.00,,,0.00,Wunderground v.1.13,2013-07-12 08:57:00,
2013-07-12 05:02:00,57.8,57.2,29.96,NNW,348,0.0,0.0,98,0.00,,,0.00,Wunderground v.1.13,2013-07-12 09:02:00,
2013-07-12 05:07:00,57.5,56.9,29.97,NNW,348,0.0,0.0,98,0.00,,,0.00,Wunderground v.1.13,2013-07-12 09:07:00,
2013-07-12 05:12:00,57.7,57.1,29.97,NNW,348,0.0,0.0,98,0.00,,,0.00,Wunderground v.1.13,2013-07-12 09:12:00,
2013-07-12 05:17:00,57.7,57.1,29.97,NNW,348,0.0,0.0,98,0.00,,,0.00,Wunderground v.1.13,2013-07-12 09:17:00,
2013-07-12 05:22:00,57.4,56.8,29.97,NNW,348,0.0,0.0,98,0.00,,,0.00,Wunderground v.1.13,2013-07-12 09:22:00,
2013-07-12 05:27:00,57.2,56.6,29.97,NNW,348,0.0,0.0,98,0.00,,,0.00,Wunderground v.1.13,2013-07-12 09:27:00,
2013-07-12 05:32:00,57.4,56.8,29.97,NNW,348,0.0,0.0,98,0.00,,,0.00,Wunderground v.1.13,2013-07-12 09:32:00,
2013-07-12 05:37:00,57.6,57.0,29.97,NNW,348,0.0,0.0,98,0.00,,,0.00,Wunderground v.1.13,2013-07-12 09:37:00,
2013-07-12 05:42:00,57.8,57.2,29.97,NNW,348,0.0,0.0,98,0.00,,,0.00,Wunderground v.1.13,2013-07-12 09:42:00,
2013-07-12 05:47:00,57.9,57.3,29.97,NNW,348,0.0,0.0,98,0.00,,,0.00,Wunderground v.1.13,2013-07-12 09:47:00,
2013-07-12 05:52:00,58.0,57.4,29.97,NNW,348,0.0,0.0,98,0.00,,,0.00,Wunderground v.1.13,2013-07-12 09:52:00,
2013-07-12 05:57:00,58.1,57.5,29.97,NNW,348,0.0,0.0,98,0.00,,,0.00,Wunderground v.1.13,2013-07-12 09:57:00,
2013-07-12 06:02:00,58.1,57.5,29.98,NNW,348,0.0,0.0,98,0.00,,,0.00,Wunderground v.1.13,2013-07-12 10:02:00,
2013-07-12 06:07:00,58.2,57.6,29.97,NNW,348,0.0,0.0,98,0.00,,,0.00,Wunderground v.1.13,2013-07-12 10:07:00,
2013-07-12 06:12:00,58.2,57.6,29.98,NNW,348,0.0,0.0,98,0.00,,,0.00,Wunderground v.1.13,2013-07-12 10:12:00,
2013-07-12 06:17:00,58.1,57.5,29.98,NNW,348,0.0,0.0,98,0.00,,,0.00,Wunderground v.1.13,2013-07-12 10:17:00,
2013-07-12 06:22:00,58.2,57.6,29.98,NNW,348,0.0,0.0,98,0.00,,,0.00,Wunderground v.1.13,2013-07-12 10:22:00,
2013-07-12 06:27:00,58.2,57.6,29.98,NNW,348,0.0,0.0,98,0.00,,,0.00,Wunderground v.1.13,2013-07-12 10:27:00,
2013-07-12 06:32:00,58.0,57.4,29.98,NNW,348,0.0,0.0,98,0.00,,,0.00,Wunderground v.1.13,2013-07-12 10:32:00,
2013-07-12 06:37:00,58.0,57.4,29.98,NNW,348,0.0,0.0,98,0.00,,,0.00,Wunderground v.1.13,2013-07-12 10:37:00,
2013-07-12 06:42:00,58.0,57.4,29.98,NNW,348,0.0,0.0,98,0.00,,,0.00,Wunderground v.1.13,2013-07-12 10:42:00,
2013-07-12 06:47:00,58.0,57.4,29.98,NNW,348,0.0,0.0,98,0.00,,,0.00,Wunderground v.1.13,2013-07-12 10:47:00,
2013-07-12 06:52:00,58.1,57.5,29.98,NNW,348,0.0,0.0,98,0.00,,,0.00,Wunderground v.1.13,2013-07-12 10:52:00,
2013-07-12 06:57:00,58.1,57.5,29.99,NNW,348,0.0,0.0,98,0.00,,,0.00,Wunderground v.1.13,2013-07-12 10:57:00,
2013-07-12 07:02:00,58.2,57.6,29.99,NNW,348,0.0,0.0,98,0.00,,,0.00,Wunderground v.1.13,2013-07-12 11:02:00,
2013-07-12 07:07:00,58.2,57.6,29.99,NNW,348,0.0,0.0,98,0.00,,,0.00,Wunderground v.1.13,2013-07-12 11:07:00,
2013-07-12 07:12:00,58.3,57.7,29.99,NNW,348,0.0,0.0,98,0.00,,,0.00,Wunderground v.1.13,2013-07-12 11:12:00,
2013-07-12 07:17:00,58.3,57.7,29.99,NNW,348,0.0,0.0,98,0.00,,,0.00,Wunderground v.1.13,2013-07-12 11:17:00,
2013-07-12 07:22:00,58.4,57.8,30.00,NNW,348,0.0,0.0,98,0.00,,,0.00,Wunderground v.1.13,2013-07-12 11:22:00,
2013-07-12 07:27:00,58.4,57.8,30.00,NNW,348,0.0,0.0,98,0.00,,,0.00,Wunderground v.1.13,2013-07-12 11:27:00,
2013-07-12 07:32:00,58.4,57.8,30.00,NNW,348,0.0,0.0,98,0.00,,,0.00,Wunderground v.1.13,2013-07-12 11:32:00,
2013-07-12 07:37:00,58.4,57.8,30.00,NNW,348,0.0,0.0,98,0.00,,,0.00,Wunderground v.1.13,2013-07-12 11:37:00,
2013-07-12 07:42:00,58.4,57.8,30.00,NNW,348,0.0,0.0,98,0.00,,,0.00,Wunderground v.1.13,2013-07-12 11:42:00,
2013-07-12 07:47:00,58.4,57.8,30.01,NNW,348,0.0,0.0,98,0.00,,,0.00,Wunderground v.1.13,2013-07-12 11:47:00,
2013-07-12 07:52:00,58.5,57.9,30.01,NNW,348,0.0,0.0,98,0.00,,,0.00,Wunderground v.1.13,2013-07-12 11:52:00,
2013-07-12 07:57:00,58.6,58.0,30.01,NNW,348,0.0,0.0,98,0.00,,,0.00,Wunderground v.1.13,2013-07-12 11:57:00,
2013-07-12 08:02:00,58.4,57.8,30.01,NNW,348,0.0,0.0,98,0.00,,,0.00,Wunderground v.1.13,2013-07-12 12:02:00,
2013-07-12 08:07:00,58.7,58.1,30.01,NNW,348,0.0,0.0,98,0.00,,,0.00,Wunderground v.1.13,2013-07-12 12:07:00,
2013-07-12 08:12:00,58.7,58.1,30.01,NNW,348,0.0,0.0,98,0.00,,,0.00,Wunderground v.1.13,2013-07-12 12:12:00,
2013-07-12 08:17:00,58.9,58.3,30.01,NNW,348,0.0,0.0,98,0.00,,,0.00,Wunderground v.1.13,2013-07-12 12:17:00,
2013-07-12 08:22:00,58.9,58.3,30.01,NNW,348,0.0,0.0,98,0.00,,,0.00,Wunderground v.1.13,2013-07-12 12:22:00,
2013-07-12 08:27:00,59.1,58.5,30.01,NNW,348,0.0,0.0,98,0.00,,,0.00,Wunderground v.1.13,2013-07-12 12:27:00,
2013-07-12 08:32:00,59.5,58.9,30.01,NNW,348,0.0,0.0,98,0.00,,,0.00,Wunderground v.1.13,2013-07-12 12:32:00,
2013-07-12 08:37:00,59.5,58.9,30.01,NNW,348,0.0,0.0,98,0.00,,,0.00,Wunderground v.1.13,2013-07-12 12:37:00,
2013-07-12 08:42:00,59.6,59.0,30.02,NNW,348,0.0,0.0,98,0.00,,,0.00,Wunderground v.1.13,2013-07-12 12:42:00,
2013-07-12 08:47:00,59.7,59.1,30.02,NNW,348,0.0,0.0,98,0.00,,,0.00,Wunderground v.1.13,2013-07-12 12:47:00,
2013-07-12 08:52:00,60.0,59.4,30.02,NNW,348,0.0,0.0,98,0.00,,,0.00,Wunderground v.1.13,2013-07-12 12:52:00,
2013-07-12 08:57:00,60.2,59.6,30.02,NNW,348,0.0,0.0,98,0.00,,,0.00,Wunderground v.1.13,2013-07-12 12:57:00,
2013-07-12 09:02:00,60.2,59.6,30.02,NNW,348,0.0,0.0,98,0.00,,,0.00,Wunderground v.1.13,2013-07-12 13:02:00,
2013-07-12 09:07:00,60.5,59.9,30.02,NNW,348,0.0,0.0,98,0.00,,,0.00,Wunderground v.1.13,2013-07-12 13:07:00,
2013-07-12 09:12:00,60.9,60.3,30.02,NNW,348,0.0,0.0,98,0.00,,,0.00,Wunderground v.1.13,2013-07-12 13:12:00,
2013-07-12 09:17:00,61.3,60.7,30.02,NNW,348,0.0,0.0,98,0.00,,,0.00,Wunderground v.1.13,2013-07-12 13:17:00,
2013-07-12 09:22:00,61.6,61.0,30.02,NNW,348,0.0,0.0,98,0.00,,,0.00,Wunderground v.1.13,2013-07-12 13:22:00,
2013-07-12 09:27:00,61.9,61.0,30.02,NNW,348,0.0,1.0,97,0.00,,,0.00,Wunderground v.1.13,2013-07-12 13:27:00,
2013-07-12 09:32:00,62.0,60.8,30.02,NNW,348,0.0,1.0,96,0.00,,,0.00,Wunderground v.1.13,2013-07-12 13:32:00,
2013-07-12 09:37:00,62.4,61.2,30.02,NNW,348,0.0,0.0,96,0.00,,,0.00,Wunderground v.1.13,2013-07-12 13:37:00,
2013-07-12 09:42:00,62.6,61.1,30.02,NNW,348,0.0,1.0,95,0.00,,,0.00,Wunderground v.1.13,2013-07-12 13:42:00,
2013-07-12 09:47:00,63.2,61.7,30.02,NNW,348,1.0,1.0,95,0.00,,,0.00,Wunderground v.1.13,2013-07-12 13:47:00,
2013-07-12 09:53:00,63.5,61.7,30.02,NNW,348,0.0,0.0,94,0.00,,,0.00,Wunderground v.1.13,2013-07-12 13:53:00,
2013-07-12 09:58:00,63.8,61.7,30.02,NNW,348,0.0,0.0,93,0.00,,,0.00,Wunderground v.1.13,2013-07-12 13:58:00,
2013-07-12 10:03:00,64.1,61.7,30.02,NNW,348,0.0,0.0,92,0.00,,,0.00,Wunderground v.1.13,2013-07-12 14:03:00,
2013-07-12 10:08:00,64.7,62.3,30.02,NNW,348,1.0,1.0,92,0.00,,,0.00,Wunderground v.1.13,2013-07-12 14:08:00,
2013-07-12 10:13:00,64.6,61.6,30.02,NNW,348,0.0,0.0,90,0.00,,,0.00,Wunderground v.1.13,2013-07-12 14:13:00,
2013-07-12 10:18:00,65.0,62.0,30.02,NNW,348,0.0,3.0,90,0.00,,,0.00,Wunderground v.1.13,2013-07-12 14:18:00,
2013-07-12 10:23:00,65.3,62.3,30.02,NNW,348,2.0,2.0,90,0.00,,,0.00,Wunderground v.1.13,2013-07-12 14:23:00,
2013-07-12 10:28:00,65.2,61.9,30.02,NNW,329,0.0,2.0,89,0.00,,,0.00,Wunderground v.1.13,2013-07-12 14:28:00,
2013-07-12 10:33:00,65.4,62.1,30.02,NNW,329,1.0,1.0,89,0.00,,,0.00,Wunderground v.1.13,2013-07-12 14:33:00,
2013-07-12 10:38:00,65.9,62.6,30.02,NNW,329,0.0,0.0,89,0.00,,,0.00,Wunderground v.1.13,2013-07-12 14:38:00,
2013-07-12 10:43:00,66.1,62.4,30.02,NNW,329,0.0,0.0,88,0.00,,,0.00,Wunderground v.1.13,2013-07-12 14:43:00,
2013-07-12 10:48:00,66.1,62.4,30.02,NNW,329,0.0,0.0,88,0.00,,,0.00,Wunderground v.1.13,2013-07-12 14:48:00,
2013-07-12 10:53:00,66.6,63.3,30.02,NNW,329,0.0,1.0,89,0.00,,,0.00,Wunderground v.1.13,2013-07-12 14:53:00,
2013-07-12 10:58:00,66.4,62.7,30.02,NNW,329,0.0,0.0,88,0.00,,,0.00,Wunderground v.1.13,2013-07-12 14:58:00,
2013-07-12 11:03:00,66.8,63.1,30.02,NNW,329,0.0,1.0,88,0.00,,,0.00,Wunderground v.1.13,2013-07-12 15:03:00,
2013-07-12 11:08:00,66.7,63.0,30.02,NNW,329,0.0,1.0,88,0.00,,,0.00,Wunderground v.1.13,2013-07-12 15:08:00,
2013-07-12 11:13:00,67.0,63.3,30.02,NNW,329,0.0,0.0,88,0.00,,,0.00,Wunderground v.1.13,2013-07-12 15:13:00,
2013-07-12 11:18:00,67.4,64.0,30.03,NNW,329,0.0,1.0,89,0.00,,,0.00,Wunderground v.1.13,2013-07-12 15:18:00,
2013-07-12 11:23:00,67.9,64.2,30.03,NNW,329,1.0,1.0,88,0.00,,,0.00,Wunderground v.1.13,2013-07-12 15:23:00,
2013-07-12 11:28:00,68.2,63.9,30.03,NNW,329,0.0,0.0,86,0.00,,,0.00,Wunderground v.1.13,2013-07-12 15:28:00,
2013-07-12 11:33:00,68.5,64.1,30.03,NNW,329,0.0,1.0,86,0.00,,,0.00,Wunderground v.1.13,2013-07-12 15:33:00,
2013-07-12 11:38:00,68.7,64.7,30.03,NNW,329,0.0,0.0,87,0.00,,,0.00,Wunderground v.1.13,2013-07-12 15:38:00,
2013-07-12 11:43:00,68.9,64.2,30.03,NNW,329,0.0,3.0,85,0.00,,,0.00,Wunderground v.1.13,2013-07-12 15:43:00,
2013-07-12 11:48:00,69.0,64.3,30.03,NNW,329,0.0,2.0,85,0.00,,,0.00,Wunderground v.1.13,2013-07-12 15:48:00,
2013-07-12 11:53:00,69.2,64.8,30.03,NNW,329,0.0,0.0,86,0.00,,,0.00,Wunderground v.1.13,2013-07-12 15:53:00,
2013-07-12 11:58:00,69.3,64.3,30.03,NNW,329,0.0,2.0,84,0.00,,,0.00,Wunderground v.1.13,2013-07-12 15:58:00,
2013-07-12 12:03:00,70.0,65.3,30.03,NNW,329,0.0,2.0,85,0.00,,,0.00,Wunderground v.1.13,2013-07-12 16:03:00,
2013-07-12 12:08:00,70.6,65.9,30.02,NNW,329,0.0,2.0,85,0.00,,,0.00,Wunderground v.1.13,2013-07-12 16:08:00,
2013-07-12 12:13:00,70.9,65.1,30.02,NNW,329,0.0,4.0,82,0.00,,,0.00,Wunderground v.1.13,2013-07-12 16:13:00,
2013-07-12 12:18:00,70.6,65.2,30.02,NNW,329,0.0,1.0,83,0.00,,,0.00,Wunderground v.1.13,2013-07-12 16:18:00,
2013-07-12 12:23:00,70.9,65.5,30.02,NNW,329,0.0,3.0,83,0.00,,,0.00,Wunderground v.1.13,2013-07-12 16:23:00,
2013-07-12 12:28:00,71.2,65.8,30.02,NNW,329,0.0,2.0,83,0.00,,,0.00,Wunderground v.1.13,2013-07-12 16:28:00,
2013-07-12 12:33:00,71.0,64.9,30.02,NNW,329,0.0,1.0,81,0.00,,,0.00,Wunderground v.1.13,2013-07-12 16:33:00,
2013-07-12 12:38:00,71.2,65.8,30.02,NNW,329,0.0,4.0,83,0.00,,,0.00,Wunderground v.1.13,2013-07-12 16:38:00,
2013-07-12 12:43:00,71.4,66.3,30.02,NNW,329,1.0,1.0,84,0.00,,,0.00,Wunderground v.1.13,2013-07-12 16:43:00,
2013-07-12 12:48:00,71.5,67.1,30.02,NNW,329,0.0,3.0,86,0.00,,,0.00,Wunderground v.1.13,2013-07-12 16:48:00,
2013-07-12 12:53:00,71.6,66.5,30.03,NNW,331,2.0,4.0,84,0.00,,,0.00,Wunderground v.1.13,2013-07-12 16:53:00,
2013-07-12 12:58:00,71.4,64.5,30.03,NNW,341,0.0,4.0,79,0.00,,,0.00,Wunderground v.1.13,2013-07-12 16:58:00,
2013-07-12 13:03:00,71.2,64.4,30.03,NNE,19,0.0,4.0,79,0.00,,,0.00,Wunderground v.1.13,2013-07-12 17:03:00,
2013-07-12 13:08:00,71.1,64.3,30.03,NNE,28,0.0,3.0,79,0.00,,,0.00,Wunderground v.1.13,2013-07-12 17:08:00,
2013-07-12 13:14:00,71.1,65.0,30.03,NNE,28,0.0,3.0,81,0.00,,,0.00,Wunderground v.1.13,2013-07-12 17:14:00,
2013-07-12 13:19:00,71.3,65.5,30.03,NNE,28,0.0,3.0,82,0.00,,,0.00,Wunderground v.1.13,2013-07-12 17:19:00,
2013-07-12 13:24:00,71.3,65.2,30.03,NNE,28,2.0,2.0,81,0.00,,,0.00,Wunderground v.1.13,2013-07-12 17:24:00,
2013-07-12 13:30:00,71.5,65.4,30.03,NNE,28,0.0,2.0,81,0.00,,,0.00,Wunderground v.1.13,2013-07-12 17:30:00,
2013-07-12 13:35:00,71.6,65.1,30.03,NNE,28,0.0,0.0,80,0.00,,,0.00,Wunderground v.1.13,2013-07-12 17:35:00,
2013-07-12 13:41:00,71.9,66.1,30.03,NNE,28,0.0,1.0,82,0.00,,,0.00,Wunderground v.1.13,2013-07-12 17:41:00,
2013-07-12 13:46:00,71.9,65.4,30.03,NNE,28,3.0,3.0,80,0.00,,,0.00,Wunderground v.1.13,2013-07-12 17:46:00,
2013-07-12 13:51:00,71.9,63.9,30.03,NNE,28,0.0,1.0,76,0.00,,,0.00,Wunderground v.1.13,2013-07-12 17:51:00,
2013-07-12 13:56:00,71.9,64.7,30.03,NNE,28,1.0,4.0,78,0.00,,,0.00,Wunderground v.1.13,2013-07-12 17:56:00,
2013-07-12 14:02:00,71.7,64.5,30.03,NNE,28,0.0,1.0,78,0.00,,,0.00,Wunderground v.1.13,2013-07-12 18:02:00,
2013-07-12 14:07:00,71.3,64.8,30.03,NNE,28,0.0,1.0,80,0.00,,,0.00,Wunderground v.1.13,2013-07-12 18:07:00,
2013-07-12 14:12:00,71.0,64.2,30.03,NNE,28,0.0,0.0,79,0.00,,,0.00,Wunderground v.1.13,2013-07-12 18:12:00,
2013-07-12 14:17:00,71.1,65.7,30.03,NNE,28,0.0,0.0,83,0.00,,,0.00,Wunderground v.1.13,2013-07-12 18:17:00,
2013-07-12 14:22:00,71.3,65.9,30.03,NNE,28,0.0,0.0,83,0.00,,,0.00,Wunderground v.1.13,2013-07-12 18:22:00,
2013-07-12 14:27:00,71.4,64.9,30.03,NNE,28,0.0,3.0,80,0.00,,,0.00,Wunderground v.1.13,2013-07-12 18:27:00,
2013-07-12 14:32:00,71.6,65.1,30.03,NNE,28,0.0,2.0,80,0.00,,,0.00,Wunderground v.1.13,2013-07-12 18:32:00,
2013-07-12 14:38:00,71.5,64.6,30.03,NNE,28,0.0,1.0,79,0.00,,,0.00,Wunderground v.1.13,2013-07-12 18:38:00,
2013-07-12 14:43:00,71.6,65.5,30.02,NNE,28,0.0,3.0,81,0.00,,,0.00,Wunderground v.1.13,2013-07-12 18:43:00,
2013-07-12 14:48:00,71.3,64.4,30.02,NNE,28,0.0,2.0,79,0.00,,,0.00,Wunderground v.1.13,2013-07-12 18:48:00,
2013-07-12 14:53:00,71.3,65.9,30.02,NNE,28,0.0,0.0,83,0.00,,,0.00,Wunderground v.1.13,2013-07-12 18:53:00,
2013-07-12 14:58:00,71.5,66.1,30.02,NNE,28,0.0,1.0,83,0.00,,,0.00,Wunderground v.1.13,2013-07-12 18:58:00,
2013-07-12 15:04:00,71.6,66.2,30.02,NNE,28,0.0,0.0,83,0.00,,,0.00,Wunderground v.1.13,2013-07-12 19:04:00,
2013-07-12 15:09:00,71.5,65.0,30.02,NNE,28,1.0,4.0,80,0.00,,,0.00,Wunderground v.1.13,2013-07-12 19:09:00,
2013-07-12 15:14:00,71.8,65.7,30.02,NNE,26,0.0,1.0,81,0.00,,,0.00,Wunderground v.1.13,2013-07-12 19:14:00,
2013-07-12 15:20:00,72.1,65.6,30.02,NNE,26,0.0,0.0,80,0.00,,,0.00,Wunderground v.1.13,2013-07-12 19:20:00,
2013-07-12 15:25:00,72.1,64.9,30.02,NNE,26,0.0,0.0,78,0.00,,,0.00,Wunderground v.1.13,2013-07-12 19:25:00,
2013-07-12 15:30:00,72.2,65.0,30.02,NNE,26,0.0,1.0,78,0.00,,,0.00,Wunderground v.1.13,2013-07-12 19:30:00,
2013-07-12 15:35:00,72.8,65.9,30.02,NNE,26,0.0,4.0,79,0.00,,,0.00,Wunderground v.1.13,2013-07-12 19:35:00,
2013-07-12 15:40:00,72.8,65.2,30.02,NNE,26,0.0,1.0,77,0.00,,,0.00,Wunderground v.1.13,2013-07-12 19:40:00,
2013-07-12 15:45:00,72.6,65.7,30.02,NNE,26,1.0,1.0,79,0.00,,,0.00,Wunderground v.1.13,2013-07-12 19:45:00,
2013-07-12 15:50:00,72.6,65.7,30.02,NNE,26,1.0,1.0,79,0.00,,,0.00,Wunderground v.1.13,2013-07-12 19:50:00,
2013-07-12 15:56:00,72.4,64.8,30.01,NNE,26,0.0,1.0,77,0.00,,,0.00,Wunderground v.1.13,2013-07-12 19:56:00,
2013-07-12 16:01:00,72.4,65.5,30.02,NNE,26,0.0,1.0,79,0.00,,,0.00,Wunderground v.1.13,2013-07-12 20:01:00,
2013-07-12 16:07:00,72.4,65.2,30.02,NNE,26,0.0,1.0,78,0.00,,,0.00,Wunderground v.1.13,2013-07-12 20:07:00,
2013-07-12 16:12:00,72.4,65.5,30.02,NNE,26,1.0,1.0,79,0.00,,,0.00,Wunderground v.1.13,2013-07-12 20:12:00,
2013-07-12 16:17:00,72.5,66.0,30.01,NNE,26,0.0,1.0,80,0.00,,,0.00,Wunderground v.1.13,2013-07-12 20:17:00,
2013-07-12 16:22:00,72.4,65.5,30.02,NNE,26,1.0,4.0,79,0.00,,,0.00,Wunderground v.1.13,2013-07-12 20:22:00,
2013-07-12 16:27:00,72.5,65.6,30.01,NNE,26,0.0,3.0,79,0.00,,,0.00,Wunderground v.1.13,2013-07-12 20:27:00,
2013-07-12 16:32:00,72.6,65.7,30.01,NNE,26,4.0,5.0,79,0.00,,,0.00,Wunderground v.1.13,2013-07-12 20:32:00,
2013-07-12 16:37:00,72.8,65.9,30.01,NNW,342,0.0,1.0,79,0.00,,,0.00,Wunderground v.1.13,2013-07-12 20:37:00,
2013-07-12 16:42:00,72.9,66.0,30.02,NNW,342,0.0,3.0,79,0.00,,,0.00,Wunderground v.1.13,2013-07-12 20:42:00,
2013-07-12 16:48:00,72.8,66.3,30.01,NNW,342,2.0,2.0,80,0.00,,,0.00,Wunderground v.1.13,2013-07-12 20:48:00,
2013-07-12 16:53:00,72.7,65.8,30.02,North,355,0.0,4.0,79,0.00,,,0.00,Wunderground v.1.13,2013-07-12 20:53:00,
2013-07-12 16:58:00,72.7,66.5,30.02,North,355,0.0,3.0,81,0.00,,,0.00,Wunderground v.1.13,2013-07-12 20:58:00,
2013-07-12 17:03:00,72.7,66.9,30.02,North,355,0.0,1.0,82,0.00,,,0.00,Wunderground v.1.13,2013-07-12 21:03:00,
2013-07-12 17:08:00,72.8,65.9,30.02,North,355,2.0,3.0,79,0.00,,,0.00,Wunderground v.1.13,2013-07-12 21:08:00,
2013-07-12 17:14:00,72.7,65.8,30.02,North,355,0.0,4.0,79,0.00,,,0.00,Wunderground v.1.13,2013-07-12 21:14:00,
2013-07-12 17:19:00,72.7,65.8,30.02,NNE,15,1.0,5.0,79,0.00,,,0.00,Wunderground v.1.13,2013-07-12 21:19:00,
2013-07-12 17:24:00,72.7,65.8,30.02,NNE,17,1.0,6.0,79,0.00,,,0.00,Wunderground v.1.13,2013-07-12 21:24:00,
2013-07-12 17:29:00,72.7,65.8,30.02,NNE,12,0.0,4.0,79,0.00,,,0.00,Wunderground v.1.13,2013-07-12 21:29:00,
2013-07-12 17:34:00,72.6,65.7,30.01,ENE,70,0.0,3.0,79,0.00,,,0.00,Wunderground v.1.13,2013-07-12 21:34:00,
2013-07-12 17:41:00,72.5,67.0,30.01,ENE,70,0.0,0.0,83,0.00,,,0.00,Wunderground v.1.13,2013-07-12 21:41:00,
2013-07-12 17:47:00,72.6,66.4,30.01,ENE,70,0.0,0.0,81,0.00,,,0.00,Wunderground v.1.13,2013-07-12 21:47:00,
2013-07-12 17:52:00,72.8,66.3,30.02,ENE,70,0.0,0.0,80,0.00,,,0.00,Wunderground v.1.13,2013-07-12 21:52:00,
2013-07-12 17:57:00,72.8,67.3,30.02,ENE,70,0.0,1.0,83,0.00,,,0.00,Wunderground v.1.13,2013-07-12 21:57:00,
2013-07-12 18:02:00,72.4,66.2,30.02,ENE,70,0.0,0.0,81,0.00,,,0.00,Wunderground v.1.13,2013-07-12 22:02:00,
2013-07-12 18:07:00,72.3,66.8,30.02,ENE,70,1.0,2.0,83,0.00,,,0.00,Wunderground v.1.13,2013-07-12 22:07:00,
2013-07-12 18:12:00,72.4,67.3,30.02,ENE,70,0.0,1.0,84,0.00,,,0.00,Wunderground v.1.13,2013-07-12 22:12:00,
2013-07-12 18:17:00,72.1,66.6,30.02,ENE,70,0.0,3.0,83,0.00,,,0.00,Wunderground v.1.13,2013-07-12 22:17:00,
2013-07-12 18:22:00,71.8,66.7,30.02,ENE,70,0.0,0.0,84,0.00,,,0.00,Wunderground v.1.13,2013-07-12 22:22:00,
2013-07-12 18:27:00,71.5,66.8,30.02,ENE,70,0.0,0.0,85,0.00,,,0.00,Wunderground v.1.13,2013-07-12 22:27:00,
2013-07-12 18:32:00,71.5,66.4,30.02,ENE,70,0.0,3.0,84,0.00,,,0.00,Wunderground v.1.13,2013-07-12 22:32:00,
2013-07-12 18:37:00,71.5,66.4,30.02,ENE,70,0.0,1.0,84,0.00,,,0.00,Wunderground v.1.13,2013-07-12 22:37:00,
2013-07-12 18:43:00,71.6,66.8,30.02,ENE,70,0.0,0.0,85,0.00,,,0.00,Wunderground v.1.13,2013-07-12 22:43:00,
2013-07-12 18:48:00,71.6,66.2,30.02,ENE,70,0.0,0.0,83,0.00,,,0.00,Wunderground v.1.13,2013-07-12 22:48:00,
2013-07-12 18:53:00,71.8,67.0,30.02,ENE,70,0.0,0.0,85,0.00,,,0.00,Wunderground v.1.13,2013-07-12 22:53:00,
2013-07-12 18:58:00,71.3,67.2,30.02,ENE,70,0.0,0.0,87,0.00,,,0.00,Wunderground v.1.13,2013-07-12 22:58:00,
2013-07-12 19:03:00,70.9,67.5,30.02,ENE,70,0.0,0.0,89,0.00,,,0.00,Wunderground v.1.13,2013-07-12 23:03:00,
2013-07-12 19:08:00,71.0,67.3,30.02,ENE,70,0.0,0.0,88,0.00,,,0.00,Wunderground v.1.13,2013-07-12 23:08:00,
2013-07-12 19:13:00,71.1,67.0,30.02,ENE,70,0.0,0.0,87,0.00,,,0.00,Wunderground v.1.13,2013-07-12 23:13:00,
2013-07-12 19:19:00,71.3,66.9,30.02,ENE,70,0.0,1.0,86,0.00,,,0.00,Wunderground v.1.13,2013-07-12 23:19:00,
2013-07-12 19:24:00,71.3,66.2,30.02,ENE,70,0.0,0.0,84,0.00,,,0.00,Wunderground v.1.13,2013-07-12 23:24:00,
2013-07-12 19:29:00,71.4,67.3,30.03,ENE,70,0.0,0.0,87,0.00,,,0.00,Wunderground v.1.13,2013-07-12 23:29:00,
2013-07-12 19:34:00,71.2,67.5,30.03,ENE,70,0.0,0.0,88,0.00,,,0.00,Wunderground v.1.13,2013-07-12 23:34:00,
2013-07-12 19:40:00,71.1,67.7,30.03,ENE,70,0.0,0.0,89,0.00,,,0.00,Wunderground v.1.13,2013-07-12 23:40:00,
2013-07-12 19:45:00,70.8,66.7,30.03,ENE,70,0.0,0.0,87,0.00,,,0.00,Wunderground v.1.13,2013-07-12 23:45:00,
2013-07-12 19:50:00,70.8,66.7,30.03,ENE,70,0.0,0.0,87,0.00,,,0.00,Wunderground v.1.13,2013-07-12 23:50:00,
2013-07-12 19:55:00,70.9,67.5,30.03,ENE,70,0.0,0.0,89,0.00,,,0.00,Wunderground v.1.13,2013-07-12 23:55:00,
2013-07-12 20:00:00,70.6,66.9,30.03,ENE,70,0.0,0.0,88,0.00,,,0.00,Wunderground v.1.13,2013-07-13 00:00:00,
2013-07-12 20:06:00,70.5,66.4,30.04,ENE,70,0.0,0.0,87,0.00,,,0.00,Wunderground v.1.13,2013-07-13 00:06:00,
2013-07-12 20:11:00,70.4,67.0,30.03,ENE,70,0.0,0.0,89,0.00,,,0.00,Wunderground v.1.13,2013-07-13 00:11:00,
2013-07-12 20:16:00,70.1,67.0,30.03,ENE,70,0.0,0.0,90,0.00,,,0.00,Wunderground v.1.13,2013-07-13 00:16:00,
2013-07-12 20:21:00,69.8,67.1,30.04,ENE,70,0.0,0.0,91,0.00,,,0.00,Wunderground v.1.13,2013-07-13 00:21:00,
2013-07-12 20:27:00,69.2,66.8,30.04,ENE,70,0.0,0.0,92,0.00,,,0.00,Wunderground v.1.13,2013-07-13 00:27:00,
2013-07-12 20:32:00,68.8,66.4,30.04,ENE,70,0.0,0.0,92,0.00,,,0.00,Wunderground v.1.13,2013-07-13 00:32:00,
2013-07-12 20:37:00,68.6,66.5,30.04,ENE,70,0.0,0.0,93,0.00,,,0.00,Wunderground v.1.13,2013-07-13 00:37:00,
2013-07-12 20:43:00,68.3,66.2,30.04,ENE,70,0.0,0.0,93,0.00,,,0.00,Wunderground v.1.13,2013-07-13 00:43:00,
2013-07-12 20:48:00,67.9,66.1,30.04,ENE,70,0.0,0.0,94,0.00,,,0.00,Wunderground v.1.13,2013-07-13 00:48:00,
2013-07-12 20:54:00,67.6,65.8,30.04,ENE,70,0.0,0.0,94,0.00,,,0.00,Wunderground v.1.13,2013-07-13 00:54:00,
2013-07-12 20:59:00,67.3,65.5,30.04,ENE,70,0.0,0.0,94,0.00,,,0.00,Wunderground v.1.13,2013-07-13 00:59:00,
2013-07-12 21:04:00,67.1,65.3,30.04,ENE,70,0.0,0.0,94,0.00,,,0.00,Wunderground v.1.13,2013-07-13 01:04:00,
2013-07-12 21:09:00,66.8,65.3,30.04,ENE,70,0.0,0.0,95,0.00,,,0.00,Wunderground v.1.13,2013-07-13 01:09:00,
2013-07-12 21:14:00,66.7,65.2,30.04,ENE,70,0.0,0.0,95,0.00,,,0.00,Wunderground v.1.13,2013-07-13 01:14:00,
2013-07-12 21:20:00,66.6,65.1,30.04,ENE,70,0.0,0.0,95,0.00,,,0.00,Wunderground v.1.13,2013-07-13 01:20:00,
2013-07-12 21:25:00,66.5,65.0,30.04,ENE,70,0.0,0.0,95,0.00,,,0.00,Wunderground v.1.13,2013-07-13 01:25:00,
2013-07-12 21:30:00,66.3,64.8,30.04,ENE,70,0.0,0.0,95,0.00,,,0.00,Wunderground v.1.13,2013-07-13 01:30:00,
2013-07-12 21:35:00,66.3,65.1,30.05,ENE,70,0.0,0.0,96,0.00,,,0.00,Wunderground v.1.13,2013-07-13 01:35:00,
2013-07-12 21:40:00,66.3,65.1,30.05,ENE,70,0.0,0.0,96,0.00,,,0.00,Wunderground v.1.13,2013-07-13 01:40:00,
2013-07-12 21:45:00,66.2,65.0,30.05,ENE,70,0.0,0.0,96,0.00,,,0.00,Wunderground v.1.13,2013-07-13 01:45:00,
2013-07-12 21:50:00,66.1,64.9,30.05,ENE,70,0.0,0.0,96,0.00,,,0.00,Wunderground v.1.13,2013-07-13 01:50:00,
2013-07-12 21:55:00,66.0,64.8,30.05,ENE,70,0.0,0.0,96,0.00,,,0.00,Wunderground v.1.13,2013-07-13 01:55:00,
2013-07-12 22:01:00,66.0,64.8,30.05,ENE,70,0.0,0.0,96,0.00,,,0.00,Wunderground v.1.13,2013-07-13 02:01:00,
2013-07-12 22:06:00,66.0,64.8,30.05,ENE,70,0.0,0.0,96,0.00,,,0.00,Wunderground v.1.13,2013-07-13 02:06:00,
2013-07-12 22:11:00,65.9,64.7,30.06,ENE,70,0.0,0.0,96,0.00,,,0.00,Wunderground v.1.13,2013-07-13 02:11:00,
2013-07-12 22:16:00,65.8,64.6,30.06,ENE,70,0.0,0.0,96,0.00,,,0.00,Wunderground v.1.13,2013-07-13 02:16:00,
2013-07-12 22:21:00,65.8,64.6,30.06,ENE,70,0.0,0.0,96,0.00,,,0.00,Wunderground v.1.13,2013-07-13 02:21:00,
2013-07-12 22:26:00,65.7,64.5,30.06,ENE,70,0.0,0.0,96,0.00,,,0.00,Wunderground v.1.13,2013-07-13 02:26:00,
2013-07-12 22:31:00,65.7,64.5,30.06,ENE,70,0.0,0.0,96,0.00,,,0.00,Wunderground v.1.13,2013-07-13 02:31:00,
2013-07-12 22:36:00,65.7,64.8,30.06,ENE,70,0.0,0.0,97,0.00,,,0.00,Wunderground v.1.13,2013-07-13 02:36:00,
2013-07-12 22:41:00,65.6,64.4,30.06,ENE,70,0.0,0.0,96,0.00,,,0.00,Wunderground v.1.13,2013-07-13 02:41:00,
2013-07-12 22:47:00,65.5,64.3,30.06,ENE,70,0.0,0.0,96,0.00,,,0.00,Wunderground v.1.13,2013-07-13 02:47:00,
2013-07-12 22:52:00,65.4,64.2,30.06,ENE,70,0.0,0.0,96,0.00,,,0.00,Wunderground v.1.13,2013-07-13 02:52:00,
2013-07-12 22:57:00,65.2,64.3,30.06,ENE,70,0.0,0.0,97,0.00,,,0.00,Wunderground v.1.13,2013-07-13 02:57:00,
2013-07-12 23:02:00,65.0,64.1,30.07,ENE,70,0.0,0.0,97,0.00,,,0.00,Wunderground v.1.13,2013-07-13 03:02:00,
2013-07-12 23:07:00,64.8,63.6,30.07,ENE,70,0.0,0.0,96,0.00,,,0.00,Wunderground v.1.13,2013-07-13 03:07:00,
2013-07-12 23:12:00,64.9,64.0,30.07,ENE,70,0.0,0.0,97,0.00,,,0.00,Wunderground v.1.13,2013-07-13 03:12:00,
2013-07-12 23:17:00,65.0,64.1,30.07,ENE,70,0.0,0.0,97,0.00,,,0.00,Wunderground v.1.13,2013-07-13 03:17:00,
2013-07-12 23:22:00,65.0,64.1,30.07,ENE,70,0.0,0.0,97,0.00,,,0.00,Wunderground v.1.13,2013-07-13 03:22:00,
2013-07-12 23:27:00,65.2,64.3,30.07,ENE,70,0.0,0.0,97,0.00,,,0.00,Wunderground v.1.13,2013-07-13 03:27:00,
2013-07-12 23:33:00,65.2,64.3,30.08,ENE,70,0.0,0.0,97,0.00,,,0.00,Wunderground v.1.13,2013-07-13 03:33:00,
2013-07-12 23:38:00,65.3,64.4,30.08,ENE,70,0.0,0.0,97,0.00,,,0.00,Wunderground v.1.13,2013-07-13 03:38:00,
2013-07-12 23:43:00,65.3,64.4,30.08,ENE,70,0.0,0.0,97,0.00,,,0.00,Wunderground v.1.13,2013-07-13 03:43:00,
2013-07-12 23:48:00,65.2,64.3,30.08,ENE,70,0.0,0.0,97,0.00,,,0.00,Wunderground v.1.13,2013-07-13 03:48:00,
2013-07-12 23:54:00,65.0,64.1,30.08,ENE,70,0.0,0.0,97,0.00,,,0.00,Wunderground v.1.13,2013-07-13 03:54:00,
2013-07-12 23:59:00,64.9,64.0,30.08,ENE,70,0.0,0.0,97,0.00,,,0.00,Wunderground v.1.13,2013-07-13 03:59:00,